Time;durP1;ratioP1;P1;durP2;ratioP2;P2;SDS_P1;SDS_P2;PMS_P1;PMS_P2;Temp;Humidity;BMP_temperature;BMP_pressure;BME280_temperature;BME280_humidity;BME280_pressure;Samples;Min_cycle;Max_cycle;Signal;HPM_P1;HPM_P2
2022/11/28 00:02:05;;;;;;;6.65;2.08;;;13.90;99.90;;;;;;5024984;28;20030;-77
2022/11/28 00:04:31;;;;;;;;;;;13.80;99.90;;;;;;5028512;28;20142;-77
2022/11/28 00:06:57;;;;;;;8.90;2.20;;;13.80;99.90;;;;;;5030567;28;19959;-76
2022/11/28 00:09:24;;;;;;;7.80;1.80;;;13.80;99.90;;;;;;5027070;28;20045;-75
2022/11/28 00:11:49;;;;;;;6.25;2.22;;;13.80;99.90;;;;;;5029561;28;20543;-76
2022/11/28 00:14:17;;;;;;;6.82;1.50;;;13.90;99.90;;;;;;5023621;28;20055;-76
2022/11/28 00:16:42;;;;;;;6.78;1.95;;;13.80;99.90;;;;;;5031691;28;20033;-76
2022/11/28 00:19:09;;;;;;;4.30;1.30;;;13.80;99.90;;;;;;5029074;28;20493;-76
2022/11/28 00:21:35;;;;;;;6.70;1.70;;;13.90;99.90;;;;;;5027901;28;20022;-76
2022/11/28 00:24:04;;;;;;;6.85;1.63;;;13.90;99.90;;;;;;5031834;28;20087;-76
2022/11/28 00:26:35;;;;;;;6.72;1.95;;;13.90;99.90;;;;;;5023154;28;20037;-76
2022/11/28 00:29:03;;;;;;;6.22;1.90;;;14.00;99.90;;;;;;5027429;28;20029;-77
2022/11/28 00:31:34;;;;;;;4.10;1.80;;;14.00;99.90;;;;;;5027997;28;20048;-76
2022/11/28 00:34:10;;;;;;;5.97;1.75;;;13.90;99.90;;;;;;5041287;28;20128;-75
2022/11/28 00:36:36;;;;;;;6.75;2.13;;;14.00;99.90;;;;;;5026118;28;20117;-75
2022/11/28 00:39:03;;;;;;;7.18;1.58;;;14.00;99.90;;;;;;5027293;28;20084;-75
2022/11/28 00:41:32;;;;;;;5.63;1.52;;;14.10;99.90;;;;;;5027253;28;20057;-75
2022/11/28 00:43:58;;;;;;;4.25;1.50;;;14.20;99.90;;;;;;5030758;28;20113;-76
2022/11/28 00:46:24;;;;;;;6.38;1.67;;;14.30;99.90;;;;;;5030249;28;20063;-75
2022/11/28 00:48:52;;;;;;;5.85;1.45;;;14.30;99.90;;;;;;5023360;28;20156;-74
2022/11/28 00:51:24;;;;;;;6.43;1.75;;;14.30;99.90;;;;;;5036726;28;20576;-76
2022/11/28 00:53:52;;;;;;;5.97;1.85;;;14.30;99.90;;;;;;5024331;28;20050;-75
2022/11/28 00:56:21;;;;;;;7.50;1.88;;;14.20;99.90;;;;;;5029571;28;20072;-76
2022/11/28 00:58:49;;;;;;;8.40;1.63;;;14.30;99.90;;;;;;5020593;28;20034;-76
2022/11/28 01:01:18;;;;;;;5.15;1.77;;;14.20;99.90;;;;;;5023798;28;20492;-74
2022/11/28 01:03:44;;;;;;;5.28;1.80;;;14.20;99.90;;;;;;5017937;28;20375;-75
2022/11/28 01:06:11;;;;;;;7.78;1.95;;;14.30;99.90;;;;;;5027373;28;20041;-76
2022/11/28 01:08:37;;;;;;;5.82;1.33;;;14.20;99.90;;;;;;5021360;28;20050;-75
2022/11/28 01:11:04;;;;;;;5.50;1.63;;;14.30;99.90;;;;;;5027839;28;20104;-76
2022/11/28 01:13:30;;;;;;;5.22;1.20;;;14.30;99.90;;;;;;5029778;28;20093;-77
2022/11/28 01:15:57;;;;;;;4.88;1.60;;;14.30;99.90;;;;;;5027504;28;20044;-77
2022/11/28 01:18:24;;;;;;;6.38;2.08;;;14.30;99.90;;;;;;5024077;28;20041;-77
2022/11/28 01:20:50;;;;;;;7.82;1.65;;;14.30;99.90;;;;;;5023090;28;20064;-76
2022/11/28 01:23:18;;;;;;;6.68;1.85;;;14.30;99.90;;;;;;5029271;28;20088;-77
2022/11/28 01:25:44;;;;;;;6.00;2.17;;;14.30;99.90;;;;;;5026113;28;20045;-76
2022/11/28 01:28:09;;;;;;;6.72;2.30;;;14.30;99.90;;;;;;5024503;28;20129;-76
2022/11/28 01:30:35;;;;;;;8.80;2.30;;;14.30;99.90;;;;;;5025640;28;20045;-76
2022/11/28 01:33:01;;;;;;;7.07;1.90;;;14.30;99.90;;;;;;5025686;28;20048;-76
2022/11/28 01:35:27;;;;;;;5.25;1.92;;;14.40;99.90;;;;;;5023326;28;20064;-78
2022/11/28 01:37:58;;;;;;;7.50;2.40;;;14.40;99.90;;;;;;5031335;28;20376;-77
2022/11/28 01:40:26;;;;;;;6.07;1.95;;;14.40;99.90;;;;;;5026175;28;20109;-76
2022/11/28 01:42:51;;;;;;;6.72;2.83;;;14.40;99.90;;;;;;5024937;28;20480;-76
2022/11/28 01:45:30;;;;;;;7.30;2.00;;;14.40;99.90;;;;;;5017183;28;20065;-76
2022/11/28 01:48:01;;;;;;;5.93;2.20;;;14.40;99.90;;;;;;5008834;28;20108;-77
2022/11/28 01:50:30;;;;;;;5.45;1.80;;;14.40;99.90;;;;;;5007804;28;20060;-76
2022/11/28 01:53:01;;;;;;;6.78;2.20;;;14.40;99.90;;;;;;5037534;28;20184;-76
2022/11/28 01:55:29;;;;;;;7.55;2.03;;;14.40;99.90;;;;;;5018638;28;20048;-76
2022/11/28 01:57:56;;;;;;;6.10;1.85;;;14.40;99.90;;;;;;5015867;28;20042;-76
2022/11/28 02:00:22;;;;;;;4.80;1.23;;;14.30;99.90;;;;;;5010154;28;20037;-77
2022/11/28 02:02:59;;;;;;;7.32;1.75;;;14.30;99.90;;;;;;5027609;28;20132;-76
2022/11/28 02:05:26;;;;;;;6.28;1.42;;;14.30;99.90;;;;;;5026640;28;20045;-76
2022/11/28 02:07:52;;;;;;;7.53;1.88;;;14.30;99.90;;;;;;5019084;28;20158;-76
2022/11/28 02:10:26;;;;;;;6.20;2.17;;;14.30;99.90;;;;;;5017085;28;20268;-76
2022/11/28 02:13:02;;;;;;;7.65;1.80;;;14.30;99.90;;;;;;5019418;28;20049;-77
2022/11/28 02:16:09;;;;;;;5.55;1.52;;;14.20;99.90;;;;;;5020855;28;20042;-77
2022/11/28 02:18:58;;;;;;;5.55;1.40;;;14.20;99.90;;;;;;5027257;28;20045;-77
2022/11/28 02:21:49;;;;;;;4.32;1.50;;;14.20;99.90;;;;;;5020969;28;20393;-78
2022/11/28 02:24:45;;;;;;;5.30;1.40;;;14.20;99.90;;;;;;5022459;28;20032;-78
2022/11/28 02:27:27;;;;;;;4.25;1.33;;;14.30;99.90;;;;;;5019787;28;20052;-77
2022/11/28 02:30:22;;;;;;;4.78;1.00;;;14.40;99.90;;;;;;5021245;28;20505;-77
2022/11/28 02:33:00;;;;;;;5.88;1.15;;;14.40;99.90;;;;;;5020251;28;20095;-77
2022/11/28 02:35:49;;;;;;;5.60;1.27;;;14.50;99.90;;;;;;5018753;28;20469;-77
2022/11/28 02:38:38;;;;;;;5.40;1.40;;;14.50;99.90;;;;;;5023537;28;20620;-78
2022/11/28 02:41:22;;;;;;;5.07;1.00;;;14.50;99.90;;;;;;5036928;28;20030;-77
2022/11/28 02:44:09;;;;;;;5.40;0.95;;;14.40;99.90;;;;;;5021820;28;20049;-77
2022/11/28 02:47:00;;;;;;;5.43;1.60;;;14.40;99.90;;;;;;5036859;28;20354;-77
2022/11/28 02:49:32;;;;;;;5.15;1.10;;;14.40;99.90;;;;;;5023394;28;20037;-77
2022/11/28 02:52:09;;;;;;;5.32;1.30;;;14.40;99.90;;;;;;5025911;28;20045;-77
2022/11/28 02:54:38;;;;;;;5.90;1.30;;;14.40;99.90;;;;;;5018966;28;20091;-77
2022/11/28 02:57:04;;;;;;;5.65;1.00;;;14.30;99.90;;;;;;5019175;28;20037;-76
2022/11/28 02:59:44;;;;;;;7.38;1.65;;;14.40;99.90;;;;;;5026836;28;20034;-77
2022/11/28 03:02:21;;;;;;;4.38;1.00;;;14.50;99.90;;;;;;5020081;28;20026;-77
2022/11/28 03:05:01;;;;;;;7.47;1.40;;;14.50;99.90;;;;;;5025107;28;20041;-77
2022/11/28 03:07:52;;;;;;;5.03;1.30;;;14.50;99.90;;;;;;5020652;28;20067;-77
2022/11/28 03:10:29;;;;;;;3.30;1.17;;;14.50;99.90;;;;;;5019500;28;20091;-77
2022/11/28 03:13:26;;;;;;;4.85;1.17;;;14.40;99.90;;;;;;5006468;28;20567;-77
2022/11/28 03:16:16;;;;;;;5.00;1.20;;;14.30;99.90;;;;;;5023544;28;20049;-77
2022/11/28 03:19:06;;;;;;;7.68;1.35;;;14.30;99.90;;;;;;5014938;28;20056;-76
2022/11/28 03:21:44;;;;;;;5.55;1.10;;;14.30;99.90;;;;;;5012290;28;20120;-76
2022/11/28 03:24:19;;;;;;;5.22;1.02;;;14.20;99.90;;;;;;5023298;28;20041;-77
2022/11/28 03:26:51;;;;;;;5.07;1.08;;;14.20;99.90;;;;;;5018329;28;20141;-77
2022/11/28 03:29:31;;;;;;;6.18;1.15;;;14.20;99.90;;;;;;5009076;28;20041;-76
2022/11/28 03:32:02;;;;;;;5.30;1.23;;;14.20;99.90;;;;;;5009509;28;20033;-77
2022/11/28 03:34:35;;;;;;;5.28;1.27;;;14.20;99.90;;;;;;5018290;28;20111;-77
2022/11/28 03:37:08;;;;;;;10.68;2.72;;;14.10;99.90;;;;;;5019425;28;20065;-77
2022/11/28 03:39:38;;;;;;;9.25;2.20;;;14.00;99.90;;;;;;5021296;28;20381;-77
2022/11/28 03:42:13;;;;;;;7.45;1.35;;;13.90;99.90;;;;;;5018449;28;20049;-76
2022/11/28 03:44:48;;;;;;;4.53;1.40;;;13.90;99.90;;;;;;5023542;28;20037;-76
2022/11/28 03:47:14;;;;;;;7.25;1.80;;;13.80;99.90;;;;;;5023657;28;20042;-76
2022/11/28 03:49:49;;;;;;;4.88;1.63;;;13.70;99.90;;;;;;5025389;28;20037;-76
2022/11/28 03:52:30;;;;;;;7.07;1.50;;;13.60;99.90;;;;;;5009141;28;20033;-77
2022/11/28 03:55:04;;;;;;;6.20;1.52;;;13.60;99.90;;;;;;5017896;28;20033;-76
2022/11/28 03:57:57;;;;;;;9.65;2.65;;;13.50;99.90;;;;;;5021488;28;20022;-77
2022/11/28 04:00:24;;;;;;;7.97;1.90;;;13.50;99.90;;;;;;5016352;28;20029;-76
2022/11/28 04:03:01;;;;;;;5.65;1.88;;;13.60;99.90;;;;;;5021162;28;20052;-76
2022/11/28 04:05:52;;;;;;;6.00;1.90;;;13.60;99.90;;;;;;5035791;28;22077;-77
2022/11/28 04:08:18;;;;;;;;;;;13.50;99.90;;;;;;5017604;28;20098;-76
2022/11/28 04:11:07;;;;;;;5.80;1.73;;;13.50;99.90;;;;;;5019162;28;19980;-77
2022/11/28 04:13:56;;;;;;;4.28;1.48;;;13.50;99.90;;;;;;5021628;28;20038;-77
2022/11/28 04:16:22;;;;;;;5.70;1.60;;;13.50;99.90;;;;;;5024307;28;20961;-76
2022/11/28 04:19:07;;;;;;;6.45;1.80;;;13.50;99.90;;;;;;5022741;28;20045;-77
2022/11/28 04:21:53;;;;;;;5.53;1.50;;;13.50;99.90;;;;;;5020937;28;20030;-77
2022/11/28 04:24:28;;;;;;;6.38;1.77;;;13.40;99.90;;;;;;5020410;28;20048;-77
2022/11/28 04:26:59;;;;;;;5.00;1.70;;;13.40;99.90;;;;;;5018611;28;20041;-77
2022/11/28 04:29:29;;;;;;;4.80;1.60;;;13.30;99.90;;;;;;5018839;28;20362;-77
2022/11/28 04:31:59;;;;;;;6.18;1.40;;;13.30;99.90;;;;;;5003509;28;20108;-76
2022/11/28 04:34:26;;;;;;;5.22;1.73;;;13.40;99.90;;;;;;5026092;28;20048;-77
2022/11/28 04:36:55;;;;;;;6.63;1.40;;;13.40;99.90;;;;;;5025605;28;20030;-75
2022/11/28 04:39:24;;;;;;;5.32;1.40;;;13.40;99.90;;;;;;5020127;28;20036;-77
2022/11/28 04:42:21;;;;;;;4.72;1.40;;;13.40;99.90;;;;;;5027256;28;20033;-76
2022/11/28 04:44:58;;;;;;;;;;;13.40;99.90;;;;;;5003228;28;20393;-76
2022/11/28 04:47:24;;;;;;;5.68;1.98;;;13.40;99.90;;;;;;5028813;28;19959;-77
2022/11/28 04:49:51;;;;;;;4.65;1.77;;;13.40;99.90;;;;;;5029698;28;20041;-77
2022/11/28 04:52:34;;;;;;;7.07;1.95;;;13.40;99.90;;;;;;5028459;28;20038;-77
2022/11/28 04:55:19;;;;;;;5.57;1.92;;;13.30;99.90;;;;;;5024578;28;20052;-77
2022/11/28 04:57:50;;;;;;;4.68;1.60;;;13.30;99.90;;;;;;5039277;28;20149;-77
2022/11/28 05:00:19;;;;;;;4.65;1.58;;;13.30;99.90;;;;;;5028555;28;20052;-78
2022/11/28 05:02:48;;;;;;;5.90;1.52;;;13.30;99.90;;;;;;5027539;28;20033;-77
2022/11/28 05:05:24;;;;;;;4.80;1.42;;;13.30;99.90;;;;;;5023914;28;20096;-76
2022/11/28 05:07:51;;;;;;;7.18;1.70;;;13.20;99.90;;;;;;5025880;28;20040;-76
2022/11/28 05:10:17;;;;;;;7.10;2.10;;;13.10;99.90;;;;;;5024898;28;20038;-77
2022/11/28 05:12:43;;;;;;;5.68;1.70;;;13.10;99.90;;;;;;5007330;28;20091;-76
2022/11/28 05:15:10;;;;;;;6.88;1.80;;;13.10;99.90;;;;;;5010158;28;20152;-77
2022/11/28 05:17:37;;;;;;;4.18;1.73;;;13.10;99.90;;;;;;5021832;28;20051;-76
2022/11/28 05:20:04;;;;;;;4.03;1.83;;;13.00;99.90;;;;;;5023865;28;20038;-76
2022/11/28 05:22:30;;;;;;;5.80;1.95;;;13.10;99.90;;;;;;5026576;28;20038;-77
2022/11/28 05:24:56;;;;;;;6.93;2.00;;;13.00;99.90;;;;;;5020384;28;20106;-77
2022/11/28 05:27:23;;;;;;;5.35;2.08;;;13.00;99.90;;;;;;5019777;28;20098;-76
2022/11/28 05:29:48;;;;;;;5.72;1.90;;;13.10;99.90;;;;;;5019599;28;20041;-76
2022/11/28 05:32:15;;;;;;;4.55;2.33;;;13.00;99.90;;;;;;5025776;28;20050;-77
2022/11/28 05:34:40;;;;;;;6.13;2.17;;;13.00;99.90;;;;;;5007928;28;20045;-76
2022/11/28 05:37:06;;;;;;;7.10;2.55;;;13.10;99.90;;;;;;5010855;28;20033;-78
2022/11/28 05:39:32;;;;;;;7.20;3.88;;;13.10;99.90;;;;;;5024929;28;20029;-77
2022/11/28 05:41:58;;;;;;;12.10;4.95;;;13.10;99.90;;;;;;5025753;28;20038;-77
2022/11/28 05:44:24;;;;;;;8.90;4.43;;;13.10;99.90;;;;;;5008855;28;20034;-76
2022/11/28 05:46:50;;;;;;;9.45;5.18;;;13.10;99.90;;;;;;5020482;28;20473;-77
2022/11/28 05:49:16;;;;;;;7.70;4.63;;;13.10;99.90;;;;;;5001961;28;20037;-77
2022/11/28 05:51:42;;;;;;;7.63;4.50;;;13.20;99.90;;;;;;5017585;28;20038;-77
2022/11/28 05:54:07;;;;;;;8.45;5.22;;;13.20;99.90;;;;;;5017122;28;20049;-76
2022/11/28 05:56:34;;;;;;;7.43;4.53;;;13.20;99.90;;;;;;5008366;28;20769;-76
2022/11/28 05:58:59;;;;;;;6.95;4.70;;;13.20;99.90;;;;;;5022860;28;20048;-77
2022/11/28 06:01:27;;;;;;;8.60;5.00;;;13.30;99.90;;;;;;5021673;28;20025;-76
2022/11/28 06:03:58;;;;;;;9.60;4.88;;;13.30;99.90;;;;;;5003359;28;20084;-77
2022/11/28 06:06:26;;;;;;;7.55;4.05;;;13.30;99.90;;;;;;5006504;28;20034;-77
2022/11/28 06:08:52;;;;;;;9.77;5.47;;;13.30;99.90;;;;;;5027991;28;20448;-77
2022/11/28 06:11:20;;;;;;;10.38;5.70;;;13.20;99.90;;;;;;5024324;28;20049;-76
2022/11/28 06:13:47;;;;;;;12.30;5.90;;;13.20;99.90;;;;;;5025319;28;20072;-77
2022/11/28 06:16:18;;;;;;;11.65;6.50;;;13.10;99.90;;;;;;5019548;28;20049;-77
2022/11/28 06:18:45;;;;;;;9.90;5.53;;;13.10;99.90;;;;;;5025049;28;20045;-80
2022/11/28 06:21:13;;;;;;;11.90;5.97;;;13.10;99.90;;;;;;5024622;28;20087;-76
2022/11/28 06:23:39;;;;;;;12.63;6.28;;;13.00;99.90;;;;;;5022367;28;20114;-78
2022/11/28 06:26:07;;;;;;;10.02;6.22;;;12.90;99.90;;;;;;5024171;28;20041;-77
2022/11/28 06:28:34;;;;;;;13.55;7.28;;;12.90;99.90;;;;;;5026876;28;20095;-77
2022/11/28 06:31:00;;;;;;;10.18;6.10;;;12.90;99.90;;;;;;5024762;28;20503;-77
2022/11/28 06:33:26;;;;;;;15.75;6.95;;;12.90;99.90;;;;;;5020815;28;20045;-76
2022/11/28 06:35:59;;;;;;;10.73;6.18;;;12.80;99.90;;;;;;5023569;28;20053;-77
2022/11/28 06:38:24;;;;;;;10.15;5.50;;;12.70;99.90;;;;;;5022262;28;20108;-77
2022/11/28 06:40:50;;;;;;;13.27;7.45;;;12.70;99.90;;;;;;5027890;28;20583;-77
2022/11/28 06:43:16;;;;;;;12.50;6.82;;;12.60;99.90;;;;;;5018282;28;20072;-77
2022/11/28 06:45:41;;;;;;;12.95;6.65;;;12.50;99.90;;;;;;5019552;28;20033;-76
2022/11/28 06:48:07;;;;;;;13.93;7.60;;;12.40;99.90;;;;;;5022751;28;20436;-76
2022/11/28 06:50:33;;;;;;;13.10;7.88;;;12.20;99.90;;;;;;5028981;28;20489;-78
2022/11/28 06:52:59;;;;;;;10.85;6.47;;;12.30;99.90;;;;;;5023910;28;20045;-77
2022/11/28 06:55:25;;;;;;;13.02;6.68;;;12.30;99.90;;;;;;5026242;28;20038;-78
2022/11/28 06:57:50;;;;;;;12.15;6.65;;;12.40;99.90;;;;;;5027861;28;20132;-76
2022/11/28 07:00:16;;;;;;;11.48;6.43;;;12.40;99.90;;;;;;5022590;28;20025;-76
2022/11/28 07:02:42;;;;;;;12.70;7.30;;;12.30;99.90;;;;;;5027036;28;20034;-77
2022/11/28 07:05:08;;;;;;;13.13;6.95;;;12.20;99.90;;;;;;5024822;28;20052;-77
2022/11/28 07:07:34;;;;;;;11.65;6.47;;;12.20;99.90;;;;;;5026228;28;20045;-79
2022/11/28 07:10:04;;;;;;;12.32;5.55;;;12.20;99.90;;;;;;5022694;28;20021;-77
2022/11/28 07:12:30;;;;;;;14.13;7.25;;;12.30;99.90;;;;;;5005870;28;20036;-77
2022/11/28 07:14:56;;;;;;;9.02;5.68;;;12.30;99.90;;;;;;5024631;28;20158;-77
2022/11/28 07:17:23;;;;;;;12.50;6.43;;;12.40;99.90;;;;;;5021629;28;20041;-77
2022/11/28 07:19:49;;;;;;;12.07;6.20;;;12.50;99.90;;;;;;5025095;28;20128;-77
2022/11/28 07:22:14;;;;;;;12.25;5.90;;;12.60;99.90;;;;;;5023465;28;20172;-77
2022/11/28 07:24:40;;;;;;;9.75;5.63;;;12.60;99.90;;;;;;5022929;28;20132;-77
2022/11/28 07:27:06;;;;;;;11.50;5.97;;;12.70;99.90;;;;;;5023473;28;20041;-77
2022/11/28 07:29:35;;;;;;;11.07;5.57;;;12.70;99.90;;;;;;5020213;28;20033;-76
2022/11/28 07:32:04;;;;;;;10.25;5.63;;;12.70;99.90;;;;;;5021498;28;20064;-75
2022/11/28 07:34:31;;;;;;;10.30;5.35;;;12.80;99.90;;;;;;5013723;28;20045;-77
2022/11/28 07:36:56;;;;;;;10.35;5.95;;;12.80;99.90;;;;;;5022748;28;20128;-77
2022/11/28 07:39:22;;;;;;;10.93;5.78;;;12.70;99.90;;;;;;5020617;28;20121;-77
2022/11/28 07:41:48;;;;;;;11.60;6.57;;;12.60;99.90;;;;;;5023112;28;20026;-77
2022/11/28 07:44:16;;;;;;;13.27;5.85;;;12.50;99.90;;;;;;5022245;28;20099;-76
2022/11/28 07:46:45;;;;;;;10.20;5.53;;;12.40;99.90;;;;;;5018315;28;20084;-76
2022/11/28 07:49:13;;;;;;;11.75;6.40;;;12.40;99.90;;;;;;5020384;28;20037;-77
2022/11/28 07:51:39;;;;;;;13.07;6.72;;;12.40;99.90;;;;;;5005747;28;20046;-77
2022/11/28 07:54:06;;;;;;;10.60;5.43;;;12.30;99.90;;;;;;4986601;28;20065;-77
2022/11/28 07:56:35;;;;;;;9.32;5.60;;;12.40;99.90;;;;;;5013558;28;20045;-77
2022/11/28 07:59:02;;;;;;;10.20;5.25;;;12.50;99.90;;;;;;5017374;28;20547;-76
2022/11/28 08:01:31;;;;;;;10.20;5.63;;;12.30;99.90;;;;;;5019743;28;20052;-77
2022/11/28 08:03:59;;;;;;;8.57;4.97;;;12.20;99.90;;;;;;5017362;28;20064;-77
2022/11/28 08:06:27;;;;;;;9.80;5.13;;;12.10;99.90;;;;;;5020211;28;20030;-77
2022/11/28 08:08:59;;;;;;;10.20;4.95;;;12.00;99.90;;;;;;5020146;28;20049;-77
2022/11/28 08:11:27;;;;;;;9.73;5.38;;;11.90;99.90;;;;;;5021162;28;20037;-77
2022/11/28 08:13:52;;;;;;;8.52;4.95;;;11.90;99.90;;;;;;5018867;28;20568;-77
2022/11/28 08:16:21;;;;;;;10.30;4.70;;;11.80;99.90;;;;;;5021307;28;20045;-78
2022/11/28 08:18:47;;;;;;;8.73;4.78;;;11.80;99.90;;;;;;5005374;28;20088;-79
2022/11/28 08:21:16;;;;;;;7.82;4.30;;;11.70;99.90;;;;;;5016393;28;20092;-76
2022/11/28 08:23:44;;;;;;;10.60;4.72;;;11.70;99.90;;;;;;5022167;28;20485;-77
2022/11/28 08:26:15;;;;;;;7.13;4.22;;;11.70;99.90;;;;;;5018089;28;20038;-77
2022/11/28 08:28:41;;;;;;;8.73;4.05;;;11.70;99.90;;;;;;5013053;28;20045;-77
2022/11/28 08:31:20;;;;;;;8.52;4.20;;;11.70;99.90;;;;;;5018627;28;20053;-77
2022/11/28 08:33:48;;;;;;;7.85;4.10;;;11.60;99.90;;;;;;5024717;28;20569;-76
2022/11/28 08:36:15;;;;;;;10.02;4.43;;;11.60;99.90;;;;;;5018837;28;20569;-77
2022/11/28 08:38:42;;;;;;;8.57;4.60;;;11.60;99.90;;;;;;5014927;28;20054;-77
2022/11/28 08:41:17;;;;;;;7.53;3.58;;;11.70;99.90;;;;;;5027806;28;20129;-77
2022/11/28 08:43:44;;;;;;;10.13;3.90;;;11.60;99.90;;;;;;5026155;28;20055;-77
2022/11/28 08:46:15;;;;;;;6.97;3.88;;;11.70;99.90;;;;;;5008444;28;20063;-77
2022/11/28 08:48:42;;;;;;;7.47;4.22;;;11.60;99.90;;;;;;5028633;28;20143;-77
2022/11/28 08:51:12;;;;;;;6.60;3.50;;;11.60;99.90;;;;;;5028927;28;20037;-77
2022/11/28 08:53:39;;;;;;;7.20;3.45;;;11.50;99.90;;;;;;5023029;28;20049;-78
2022/11/28 08:56:06;;;;;;;6.68;3.72;;;11.60;99.90;;;;;;5022706;28;20045;-76
2022/11/28 08:58:32;;;;;;;7.43;3.47;;;11.60;99.90;;;;;;5024686;28;20033;-77
2022/11/28 09:00:58;;;;;;;6.22;3.10;;;11.60;99.90;;;;;;5028048;28;20555;-77
2022/11/28 09:03:23;;;;;;;5.88;3.10;;;11.50;99.90;;;;;;5019904;28;20561;-78
2022/11/28 09:05:52;;;;;;;7.35;4.32;;;11.40;99.90;;;;;;5021900;28;20038;-76
2022/11/28 09:08:19;;;;;;;7.50;4.50;;;11.20;99.90;;;;;;5026719;28;20450;-77
2022/11/28 09:10:46;;;;;;;8.30;3.55;;;11.20;99.90;;;;;;5023825;28;20045;-78
2022/11/28 09:13:13;;;;;;;9.23;3.90;;;11.20;99.90;;;;;;5018875;28;20038;-77
2022/11/28 09:15:42;;;;;;;8.02;3.63;;;11.00;99.90;;;;;;5028308;28;20046;-76
2022/11/28 09:18:10;;;;;;;7.60;4.38;;;10.90;99.90;;;;;;5023655;28;20431;-78
2022/11/28 09:20:38;;;;;;;6.65;3.50;;;10.80;99.90;;;;;;5020281;28;20037;-76
2022/11/28 09:23:06;;;;;;;8.52;4.88;;;10.70;99.90;;;;;;5015660;28;20557;-78
2022/11/28 09:25:37;;;;;;;7.30;3.50;;;10.70;99.90;;;;;;5023291;28;20659;-77
2022/11/28 09:28:10;;;;;;;6.68;3.60;;;10.70;99.90;;;;;;5014901;28;20061;-79
2022/11/28 09:30:35;;;;;;;7.40;3.97;;;10.60;99.90;;;;;;5027087;28;20045;-77
2022/11/28 09:33:01;;;;;;;6.53;3.58;;;10.70;99.90;;;;;;5023927;28;20081;-76
2022/11/28 09:35:27;;;;;;;6.63;3.47;;;10.60;99.90;;;;;;5025916;28;20045;-79
2022/11/28 09:37:53;;;;;;;9.27;3.90;;;10.70;99.90;;;;;;5018511;28;20034;-76
2022/11/28 09:40:35;;;;;;;7.72;4.50;;;10.70;99.90;;;;;;5020278;28;20367;-78
2022/11/28 09:43:09;;;;;;;7.75;4.22;;;10.70;99.90;;;;;;5022139;28;20064;-77
2022/11/28 09:45:35;;;;;;;11.10;3.30;;;10.80;99.90;;;;;;5005276;28;20038;-77
2022/11/28 09:48:25;;;;;;;7.63;3.60;;;10.90;99.90;;;;;;5018689;28;20047;-78
2022/11/28 09:50:59;;;;;;;7.78;4.25;;;10.90;99.90;;;;;;5004969;28;20361;-79
2022/11/28 09:53:34;;;;;;;6.88;3.33;;;11.00;99.90;;;;;;5015293;28;20812;-77
2022/11/28 09:56:12;;;;;;;10.57;4.20;;;11.00;99.90;;;;;;5034640;28;20068;-76
2022/11/28 09:59:02;;;;;;;7.63;3.70;;;10.90;99.90;;;;;;5019316;28;20041;-77
2022/11/28 10:01:59;;;;;;;9.30;4.40;;;11.00;99.90;;;;;;5015481;28;20120;-77
2022/11/28 10:04:38;;;;;;;9.60;3.45;;;11.10;99.90;;;;;;5019855;28;20037;-78
2022/11/28 10:07:32;;;;;;;7.88;3.35;;;11.10;99.90;;;;;;5018588;28;20037;-78
2022/11/28 10:10:35;;;;;;;6.25;2.78;;;11.20;99.90;;;;;;5032919;28;20038;-78
2022/11/28 10:13:18;;;;;;;5.50;2.17;;;11.20;99.90;;;;;;5010452;28;20030;-78
2022/11/28 10:16:24;;;;;;;4.28;2.15;;;11.30;99.90;;;;;;5016235;28;20045;-73
2022/11/28 10:18:54;;;;;;;6.47;2.50;;;11.50;99.90;;;;;;4973156;28;20042;-75
2022/11/28 10:21:42;;;;;;;4.28;2.70;;;11.40;99.90;;;;;;5007149;28;20401;-73
2022/11/28 10:24:21;;;;;;;5.15;2.20;;;11.60;99.90;;;;;;5015543;28;20053;-77
2022/11/28 10:26:54;;;;;;;4.20;2.10;;;11.70;99.90;;;;;;5017377;28;20034;-73
2022/11/28 10:29:44;;;;;;;6.07;2.10;;;11.80;99.90;;;;;;5018024;28;20049;-74
2022/11/28 10:32:15;;;;;;;5.47;1.75;;;11.80;99.90;;;;;;5017983;28;20108;-72
2022/11/28 10:34:57;;;;;;;5.25;1.65;;;11.90;99.90;;;;;;5005147;28;20068;-74
2022/11/28 10:37:26;;;;;;;4.47;1.58;;;11.80;99.90;;;;;;4980839;28;20121;-76
2022/11/28 10:39:52;;;;;;;3.17;1.23;;;11.70;99.90;;;;;;5010750;28;20107;-75
2022/11/28 10:42:30;;;;;;;7.38;2.75;;;11.70;99.90;;;;;;4993367;28;20068;-74
2022/11/28 10:44:58;;;;;;;4.68;1.30;;;11.80;99.90;;;;;;5021117;28;20096;-75
2022/11/28 10:47:27;;;;;;;3.70;1.30;;;11.70;99.90;;;;;;5012218;28;20053;-75
2022/11/28 10:50:03;;;;;;;4.22;1.80;;;11.50;99.90;;;;;;5021026;28;20116;-75
2022/11/28 10:52:46;;;;;;;3.50;1.50;;;11.40;99.90;;;;;;5018318;28;21074;-74
2022/11/28 10:55:22;;;;;;;4.85;1.60;;;11.60;99.90;;;;;;5027874;28;20045;-75
2022/11/28 10:58:23;;;;;;;6.32;1.85;;;11.70;99.90;;;;;;5017029;28;20076;-74
2022/11/28 11:00:56;;;;;;;4.93;2.17;;;11.80;99.90;;;;;;5013418;28;20053;-73
2022/11/28 11:03:28;;;;;;;6.63;2.60;;;11.80;99.90;;;;;;5021453;28;20099;-75
2022/11/28 11:05:54;;;;;;;4.38;2.08;;;11.80;99.90;;;;;;5022279;28;20041;-74
2022/11/28 11:08:26;;;;;;;7.43;2.92;;;11.90;99.90;;;;;;5018453;28;20025;-75
2022/11/28 11:10:54;;;;;;;9.98;2.28;;;11.80;99.90;;;;;;5020945;28;20053;-75
2022/11/28 11:13:21;;;;;;;8.90;3.50;;;11.90;99.90;;;;;;5015999;28;20034;-75
2022/11/28 11:16:00;;;;;;;9.93;4.25;;;11.90;99.90;;;;;;5035353;28;20045;-74
2022/11/28 11:18:46;;;;;;;10.82;3.53;;;11.90;99.90;;;;;;5015683;28;20535;-74
2022/11/28 11:21:26;;;;;;;10.05;3.55;;;11.90;99.90;;;;;;5003189;28;20037;-73
2022/11/28 11:24:15;;;;;;;8.40;4.00;;;12.00;99.90;;;;;;5008169;28;20041;-74
2022/11/28 11:26:45;;;;;;;16.77;4.88;;;11.90;99.90;;;;;;5009785;28;20336;-74
2022/11/28 11:29:26;;;;;;;8.52;3.67;;;12.00;99.90;;;;;;5013129;28;20064;-73
2022/11/28 11:31:53;;;;;;;7.28;3.40;;;11.90;99.90;;;;;;5012445;28;20041;-74
2022/11/28 11:34:21;;;;;;;9.00;3.70;;;11.90;99.90;;;;;;4992477;28;20045;-75
2022/11/28 11:36:47;;;;;;;7.32;3.53;;;11.80;99.90;;;;;;5011496;28;20056;-75
2022/11/28 11:39:13;;;;;;;7.80;3.33;;;11.80;99.90;;;;;;5013751;28;20041;-74
2022/11/28 11:41:42;;;;;;;8.90;3.60;;;11.90;99.90;;;;;;5023153;28;20148;-74
2022/11/28 11:44:14;;;;;;;7.95;3.70;;;12.00;99.90;;;;;;5015308;28;20040;-74
2022/11/28 11:47:12;;;;;;;8.02;3.67;;;11.90;99.90;;;;;;5018005;28;20120;-74
2022/11/28 11:49:43;;;;;;;5.85;3.08;;;12.00;99.90;;;;;;5018031;28;20045;-75
2022/11/28 11:52:12;;;;;;;7.57;3.05;;;12.00;99.90;;;;;;5019094;28;20066;-75
2022/11/28 11:54:56;;;;;;;8.45;3.67;;;12.10;99.90;;;;;;5015970;28;20501;-74
2022/11/28 11:57:38;;;;;;;8.73;3.97;;;12.10;99.90;;;;;;5021212;28;21313;-74
2022/11/28 12:00:23;;;;;;;6.93;3.38;;;12.20;99.90;;;;;;5016385;28;20041;-74
2022/11/28 12:03:03;;;;;;;7.35;3.85;;;12.30;99.90;;;;;;4990500;28;20033;-73
2022/11/28 12:05:53;;;;;;;8.60;3.80;;;12.30;99.90;;;;;;5015411;28;20033;-74
2022/11/28 12:08:31;;;;;;;8.70;3.80;;;12.40;99.90;;;;;;5030403;28;20034;-74
2022/11/28 12:11:07;;;;;;;6.82;3.22;;;12.50;99.90;;;;;;5021419;28;20430;-74
2022/11/28 12:13:34;;;;;;;6.82;2.88;;;12.50;99.90;;;;;;5018363;28;20033;-74
2022/11/28 12:16:28;;;;;;;8.68;1.80;;;12.60;99.90;;;;;;5023024;28;20041;-73
2022/11/28 12:19:09;;;;;;;3.58;1.67;;;12.70;99.90;;;;;;5019145;28;20061;-75
2022/11/28 12:21:40;;;;;;;6.57;1.77;;;12.90;99.90;;;;;;5020842;28;20145;-74
2022/11/28 12:24:16;;;;;;;5.30;2.67;;;13.30;99.90;;;;;;5021139;28;20037;-75
2022/11/28 12:26:48;;;;;;;6.50;2.10;;;13.60;99.90;;;;;;5023459;28;20048;-74
2022/11/28 12:29:45;;;;;;;4.35;1.80;;;13.90;99.90;;;;;;5016376;28;20040;-73
2022/11/28 12:32:32;;;;;;;5.65;1.83;;;14.20;99.90;;;;;;5021184;28;20033;-79
2022/11/28 12:35:22;;;;;;;6.32;2.33;;;14.80;99.90;;;;;;5026525;28;20049;-77
2022/11/28 12:38:15;;;;;;;6.25;1.92;;;15.20;99.90;;;;;;5021548;28;20041;-77
2022/11/28 12:40:50;;;;;;;5.00;2.10;;;15.10;99.90;;;;;;5016412;28;20389;-77
2022/11/28 12:43:47;;;;;;;4.78;1.80;;;15.70;99.90;;;;;;5019004;28;20036;-77
2022/11/28 12:46:22;;;;;;;5.97;1.42;;;16.00;99.90;;;;;;5008170;28;20036;-77
2022/11/28 12:49:15;;;;;;;3.80;1.42;;;16.20;99.90;;;;;;5025446;28;20125;-77
2022/11/28 12:51:58;;;;;;;3.92;1.27;;;15.40;99.90;;;;;;4992226;28;20642;-77
2022/11/28 12:55:01;;;;;;;6.03;1.90;;;15.90;99.90;;;;;;5026439;28;20060;-77
2022/11/28 12:57:35;;;;;;;4.22;1.73;;;15.10;99.90;;;;;;5018779;28;20512;-77
2022/11/28 13:00:07;;;;;;;4.15;1.70;;;14.80;99.90;;;;;;5017845;28;20133;-78
2022/11/28 13:02:51;;;;;;;5.20;1.45;;;14.80;99.90;;;;;;5017215;28;20113;-79
2022/11/28 13:05:53;;;;;;;3.95;1.13;;;14.60;99.90;;;;;;5031707;28;20038;-77
2022/11/28 13:08:50;;;;;;;3.90;1.17;;;14.40;99.90;;;;;;5010685;28;20073;-77
2022/11/28 13:11:33;;;;;;;3.58;1.33;;;14.00;99.90;;;;;;5025809;28;20065;-77
2022/11/28 13:14:24;;;;;;;3.85;1.83;;;13.90;99.90;;;;;;5027566;28;20041;-79
2022/11/28 13:16:52;;;;;;;6.57;2.50;;;13.80;99.90;;;;;;5017953;28;20453;-76